createdAt,value
2022-12-08T00:01:54.984Z,39983.78
2022-12-08T00:04:22.156Z,39947.88
2022-12-08T00:07:07.793Z,39866.13
2022-12-08T00:09:44.100Z,39840.19
2022-12-08T00:12:16.450Z,39868.09
2022-12-08T00:14:46.244Z,39812.28
2022-12-08T00:17:15.580Z,39834.22
2022-12-08T00:19:43.255Z,39874.09
2022-12-08T00:22:11.547Z,39830.22
2022-12-08T00:24:44.275Z,39728.50
2022-12-08T00:27:13.850Z,39732.50
2022-12-08T00:29:43.181Z,39616.84
2022-12-08T00:32:12.713Z,39724.53
2022-12-08T00:34:42.113Z,39746.47
2022-12-08T00:37:11.480Z,39732.50
2022-12-08T00:39:40.763Z,39664.69
2022-12-08T00:42:14.025Z,39570.97
2022-12-08T00:44:41.528Z,39567.00
2022-12-08T00:47:11.103Z,39646.75
2022-12-08T00:49:43.569Z,39580.94
2022-12-08T00:52:10.828Z,39582.94
2022-12-08T00:54:40.274Z,39565.00
2022-12-08T00:57:09.970Z,39531.09
2022-12-08T00:59:37.750Z,39576.97
2022-12-08T01:02:11.838Z,39567.00
2022-12-08T01:04:38.970Z,39561.00
2022-12-08T01:07:06.071Z,39527.09
2022-12-08T01:09:35.728Z,39491.22
2022-12-08T01:12:05.336Z,39489.22
2022-12-08T01:14:34.576Z,39489.22
2022-12-08T01:17:06.651Z,39459.31
2022-12-08T01:19:39.125Z,39433.38
2022-12-08T01:22:08.332Z,39415.44
2022-12-08T01:24:40.226Z,39425.41
2022-12-08T01:27:09.402Z,39399.50
2022-12-08T01:29:36.572Z,39383.53
2022-12-08T01:32:05.981Z,39419.44
2022-12-08T01:34:35.306Z,39407.47
2022-12-08T01:37:09.639Z,39377.56
2022-12-08T01:39:41.128Z,39355.63
2022-12-08T01:42:21.330Z,39389.53
2022-12-08T01:45:00.416Z,39385.53
2022-12-08T01:47:36.047Z,39349.63
2022-12-08T01:50:04.517Z,39405.47
2022-12-08T01:52:38.965Z,39379.56
2022-12-08T01:55:14.871Z,39353.63
2022-12-08T01:57:51.337Z,39405.47
2022-12-08T02:00:22.194Z,39367.59
2022-12-08T02:03:03.644Z,39385.53
2022-12-08T02:05:37.008Z,39349.63
2022-12-08T02:08:06.756Z,39359.59
2022-12-08T02:10:37.522Z,39385.53
2022-12-08T02:13:07.073Z,39355.63
2022-12-08T02:16:16.905Z,39355.63
2022-12-08T02:19:29.914Z,39357.63
2022-12-08T02:22:07.263Z,39343.66
2022-12-08T02:24:49.910Z,39361.59
2022-12-08T02:27:25.095Z,39367.59
2022-12-08T02:29:58.196Z,39363.59
2022-12-08T02:32:34.305Z,39345.66
2022-12-08T02:35:35.043Z,39323.72
2022-12-08T02:38:22.862Z,39331.69
2022-12-08T02:41:13.225Z,39363.59
2022-12-08T02:43:47.986Z,39335.69
2022-12-08T02:46:25.029Z,39321.72
2022-12-08T02:48:55.044Z,39345.66
2022-12-08T02:51:24.196Z,39313.75
2022-12-08T02:53:52.380Z,39355.63
2022-12-08T02:56:52.895Z,39293.81
2022-12-08T02:59:31.444Z,39355.63
2022-12-08T03:02:40.022Z,39349.63
2022-12-08T03:05:22.469Z,39333.69
2022-12-08T03:07:55.544Z,39355.63
2022-12-08T03:10:34.104Z,39357.63
2022-12-08T03:13:15.708Z,39327.72
2022-12-08T03:15:50.135Z,39381.53
2022-12-08T03:18:27.278Z,39349.63
2022-12-08T03:21:05.192Z,39391.50
2022-12-08T03:23:36.775Z,39343.66
2022-12-08T03:26:33.127Z,39367.59
2022-12-08T03:29:02.374Z,39337.69
2022-12-08T03:31:34.708Z,39337.69
2022-12-08T03:34:04.530Z,39371.56
2022-12-08T03:36:33.965Z,39347.66
2022-12-08T03:39:01.199Z,39391.50
2022-12-08T03:41:28.336Z,39373.56
2022-12-08T03:43:59.266Z,39331.69
2022-12-08T03:48:56.973Z,39373.56
2022-12-08T03:51:24.700Z,39383.53
2022-12-08T03:53:54.279Z,39431.38
2022-12-08T03:56:27.967Z,39449.34
2022-12-08T03:58:55.436Z,39515.13
2022-12-08T04:01:27.653Z,39634.78
2022-12-08T04:03:57.005Z,39834.22
2022-12-08T04:06:26.610Z,40125.38
2022-12-08T04:08:58.382Z,40161.28
2022-12-08T04:11:27.759Z,40075.50
2022-12-08T04:13:59.677Z,40125.38
2022-12-08T04:16:27.987Z,40119.41
2022-12-08T04:18:55.230Z,40077.50
2022-12-08T04:21:22.531Z,39985.78
2022-12-08T04:23:49.649Z,39814.25
2022-12-08T04:26:19.082Z,39822.25
2022-12-08T04:28:48.502Z,39782.34
2022-12-08T04:31:15.765Z,39714.56
2022-12-08T04:33:42.959Z,39654.72
2022-12-08T04:36:15.218Z,39618.84
2022-12-08T04:38:42.362Z,39626.81
2022-12-08T04:41:09.431Z,39555.03
2022-12-08T04:43:42.665Z,39551.03
2022-12-08T04:46:10.619Z,39604.88
2022-12-08T04:48:41.794Z,39680.66
2022-12-08T04:51:16.337Z,39766.41
2022-12-08T04:53:48.830Z,39814.25
2022-12-08T04:56:18.527Z,39921.94
2022-12-08T04:58:47.942Z,39858.13
2022-12-08T05:01:15.332Z,39792.31
2022-12-08T05:03:49.539Z,39820.25
2022-12-08T05:06:16.679Z,39874.09
2022-12-08T05:08:45.855Z,39921.94
2022-12-08T05:11:15.445Z,39983.78
2022-12-08T05:13:47.162Z,40033.63
2022-12-08T05:16:17.448Z,40119.41
2022-12-08T05:18:47.123Z,40193.19
2022-12-08T05:21:14.204Z,40265.00
2022-12-08T05:23:45.886Z,40596.09
2022-12-08T05:26:15.454Z,40841.44
2022-12-08T05:28:44.696Z,41138.69
2022-12-08T05:31:16.198Z,41400.06
2022-12-08T05:33:44.951Z,41719.28
2022-12-08T05:36:18.175Z,42072.50
2022-12-08T05:38:48.011Z,42577.41
2022-12-08T05:41:22.707Z,42934.69
2022-12-08T05:43:54.673Z,43302.00
2022-12-08T05:46:23.982Z,43423.75
2022-12-08T05:48:54.143Z,44022.72
2022-12-08T05:51:26.124Z,44310.28
2022-12-08T05:53:56.992Z,44470.03
2022-12-08T05:56:24.852Z,45183.03
2022-12-08T05:58:56.683Z,45994.06
2022-12-08T06:01:28.484Z,46593.50
2022-12-08T06:03:59.125Z,46653.44
2022-12-08T06:06:29.436Z,46949.22
2022-12-08T06:08:58.676Z,47596.78
2022-12-08T06:11:31.257Z,47820.66
2022-12-08T06:13:59.553Z,48116.50
2022-12-08T06:16:28.226Z,49470.22
2022-12-08T06:18:58.033Z,51042.53
2022-12-08T06:21:27.343Z,51056.53
2022-12-08T06:23:54.871Z,51566.81
2022-12-08T06:26:24.965Z,52169.22
2022-12-08T06:28:54.290Z,51516.78
2022-12-08T06:31:26.177Z,50620.38
2022-12-08T06:33:55.638Z,50472.34
2022-12-08T06:36:28.086Z,50438.31
2022-12-08T06:38:56.361Z,50236.28
2022-12-08T06:41:29.134Z,50136.25
2022-12-08T06:43:58.378Z,50232.28
2022-12-08T06:46:25.594Z,49980.25
2022-12-08T06:48:52.743Z,50322.28
2022-12-08T06:51:22.656Z,50462.34
2022-12-08T06:53:54.137Z,51558.81
2022-12-08T06:56:27.864Z,51818.97
2022-12-08T06:58:59.593Z,52353.38
2022-12-08T07:01:26.783Z,51792.97
2022-12-08T07:03:53.918Z,50770.44
2022-12-08T07:06:23.800Z,49862.22
2022-12-08T07:08:51.055Z,48706.31
2022-12-08T07:11:22.038Z,47730.69
2022-12-08T07:13:50.793Z,47021.16
2022-12-08T07:16:18.054Z,46395.69
2022-12-08T07:18:49.720Z,45672.44
2022-12-08T07:21:17.595Z,44815.53
2022-12-08T07:23:55.944Z,44408.13
2022-12-08T07:26:27.063Z,43761.16
2022-12-08T07:28:59.660Z,43272.03
2022-12-08T07:31:29.548Z,43042.47
2022-12-08T07:34:01.448Z,42870.81
2022-12-08T07:36:28.557Z,42451.66
2022-12-08T07:39:00.506Z,42317.97
2022-12-08T07:41:27.669Z,42100.44
2022-12-08T07:43:56.677Z,41962.75
2022-12-08T07:46:26.288Z,41839.00
2022-12-08T07:48:55.064Z,41593.59
2022-12-08T07:51:22.625Z,41477.88
2022-12-08T07:53:54.485Z,41358.16
2022-12-08T07:56:22.385Z,41148.66
2022-12-08T07:58:49.626Z,41098.78
2022-12-08T08:01:26.053Z,41007.03
2022-12-08T08:03:55.604Z,40817.50
2022-12-08T08:06:23.397Z,39614.84
2022-12-08T08:08:50.564Z,39626.81
2022-12-08T08:11:21.386Z,39762.41
2022-12-08T08:13:50.213Z,39578.94
2022-12-08T08:16:18.765Z,39473.25
2022-12-08T08:18:52.854Z,39421.41
2022-12-08T08:24:11.756Z,39463.28
2022-12-08T08:26:38.844Z,39551.03
2022-12-08T08:29:05.936Z,39666.69
2022-12-08T08:31:33.087Z,39694.59
2022-12-08T08:34:07.257Z,39726.50
2022-12-08T08:36:39.718Z,39820.25
2022-12-08T08:39:07.103Z,39874.09
2022-12-08T08:41:36.690Z,39820.25
2022-12-08T08:44:03.960Z,39834.22
2022-12-08T08:46:33.505Z,39832.22
2022-12-08T08:49:01.065Z,39846.16
2022-12-08T08:51:30.708Z,39880.06
2022-12-08T08:53:58.102Z,39814.25
2022-12-08T08:56:28.135Z,39776.38
2022-12-08T08:58:55.350Z,39728.50
2022-12-08T09:01:27.846Z,39718.53
2022-12-08T09:03:55.965Z,39720.53
2022-12-08T09:06:28.746Z,39764.41
2022-12-08T09:08:58.265Z,39742.47
2022-12-08T09:11:25.403Z,39716.53
2022-12-08T09:13:55.506Z,39784.34
2022-12-08T09:16:23.105Z,39826.22
2022-12-08T09:18:50.409Z,39870.09
2022-12-08T09:21:22.592Z,39917.97
2022-12-08T09:23:54.139Z,39860.13
2022-12-08T09:26:22.557Z,39882.06
2022-12-08T09:28:56.333Z,39931.94
2022-12-08T09:31:26.575Z,40013.69
2022-12-08T09:33:56.210Z,40045.59
2022-12-08T09:36:23.308Z,40045.59
2022-12-08T09:38:53.739Z,40077.50
2022-12-08T09:41:46.397Z,40149.31
2022-12-08T09:44:43.039Z,40139.34
2022-12-08T09:47:30.612Z,40167.25
2022-12-08T09:50:30.351Z,40257.00
2022-12-08T09:53:25.965Z,40368.69
2022-12-08T09:56:03.265Z,40464.44
2022-12-08T09:58:50.309Z,40510.31
2022-12-08T10:01:19.494Z,40616.03
2022-12-08T10:03:47.316Z,40777.63
2022-12-08T10:06:51.842Z,40747.69
2022-12-08T10:09:24.858Z,41042.94
2022-12-08T10:12:06.087Z,41216.50
2022-12-08T10:14:43.342Z,41422.00
2022-12-08T10:17:40.684Z,41477.88
2022-12-08T10:20:16.256Z,41687.38
2022-12-08T10:22:48.151Z,41910.84
2022-12-08T10:25:27.594Z,41990.69
2022-12-08T10:27:55.063Z,42118.38
2022-12-08T10:30:22.564Z,42228.16
2022-12-08T10:32:54.329Z,42375.84
2022-12-08T10:35:23.470Z,42651.25
2022-12-08T10:38:02.156Z,42800.94
2022-12-08T10:40:40.549Z,43006.53
2022-12-08T10:43:17.710Z,43286.00
2022-12-08T10:45:44.980Z,44146.53
2022-12-08T10:48:28.804Z,44332.25
2022-12-08T10:50:58.465Z,44284.31
2022-12-08T10:53:30.985Z,44042.69
2022-12-08T10:56:04.071Z,44388.16
2022-12-08T10:58:47.573Z,44823.50
2022-12-08T11:01:40.462Z,45322.84
2022-12-08T11:04:16.964Z,45932.13
2022-12-08T11:06:50.631Z,46153.91
2022-12-08T11:09:17.625Z,46241.81
2022-12-08T11:11:56.276Z,46109.97
2022-12-08T11:14:32.414Z,46417.66
2022-12-08T11:17:07.402Z,46807.31
2022-12-08T11:19:41.955Z,47015.16
2022-12-08T11:22:34.630Z,46831.31
2022-12-08T11:25:07.874Z,47181.03
2022-12-08T11:27:36.564Z,46689.41
2022-12-08T11:30:14.760Z,47081.09
2022-12-08T11:32:44.821Z,46985.19
2022-12-08T11:35:41.395Z,46633.47
2022-12-08T11:38:21.005Z,46981.19
2022-12-08T11:40:52.282Z,47314.94
2022-12-08T11:43:33.443Z,47324.94
2022-12-08T11:46:30.239Z,47614.75
2022-12-08T11:49:06.735Z,48238.47
2022-12-08T11:51:39.378Z,48804.28
2022-12-08T11:54:55.257Z,48664.31
2022-12-08T11:57:29.610Z,48202.47
2022-12-08T11:59:58.682Z,47740.69
2022-12-08T12:02:36.116Z,49318.22
2022-12-08T12:05:07.270Z,50674.41
2022-12-08T12:07:55.961Z,50980.50
2022-12-08T12:10:43.103Z,52335.38
2022-12-08T12:13:25.371Z,53826.91
2022-12-08T12:16:32.082Z,54083.25
2022-12-08T12:19:03.177Z,55108.78
2022-12-08T12:21:46.594Z,55878.13
2022-12-08T12:24:26.752Z,56134.63
2022-12-08T12:27:05.032Z,56391.13
2022-12-08T12:29:37.321Z,56391.13
2022-12-08T12:32:10.992Z,56904.22
2022-12-08T12:34:49.095Z,56391.13
2022-12-08T12:37:21.963Z,57160.78
2022-12-08T12:39:52.075Z,57417.38
2022-12-08T12:42:50.765Z,57417.38
2022-12-08T12:45:17.819Z,58700.59
2022-12-08T12:47:57.784Z,59214.00
2022-12-08T12:50:34.301Z,59727.50
2022-12-08T12:53:03.725Z,58957.28
2022-12-08T12:55:54.129Z,59727.50
2022-12-08T12:58:30.232Z,61268.47
2022-12-08T13:01:12.659Z,62296.19
2022-12-08T13:04:12.439Z,62296.19
2022-12-08T13:06:43.357Z,63838.31
2022-12-08T13:09:24.233Z,62810.16
2022-12-08T13:11:57.212Z,63324.19
2022-12-08T13:14:29.105Z,61782.28
2022-12-08T13:17:00.427Z,61268.47
2022-12-08T13:19:31.806Z,60497.91
2022-12-08T13:22:01.635Z,59470.75
2022-12-08T13:24:37.901Z,58700.59
2022-12-08T13:27:07.306Z,57930.59
2022-12-08T13:29:36.111Z,57930.59
2022-12-08T13:32:23.444Z,57417.38
2022-12-08T13:34:59.077Z,57160.78
2022-12-08T13:37:54.580Z,56904.22
2022-12-08T13:40:30.064Z,56647.66
2022-12-08T13:43:09.246Z,57160.78
2022-12-08T13:46:48.645Z,56904.22
2022-12-08T13:57:32.887Z,58443.91
2022-12-08T14:00:02.918Z,58957.28
2022-12-08T14:02:48.001Z,58443.91
2022-12-08T14:05:34.627Z,57673.97
2022-12-08T14:11:36.685Z,57417.38
2022-12-08T14:14:11.378Z,57160.78
2022-12-08T14:16:43.362Z,56904.22
2022-12-08T14:19:25.576Z,56391.13
2022-12-08T14:22:06.304Z,56391.13
2022-12-08T14:24:35.807Z,56647.66
2022-12-08T14:27:07.056Z,56134.63
2022-12-08T14:29:46.210Z,56134.63
2022-12-08T14:32:34.473Z,55621.66
2022-12-08T14:35:07.866Z,56391.13
2022-12-08T14:37:36.632Z,54083.25
2022-12-08T14:40:08.266Z,47688.72
2022-12-08T14:43:07.954Z,45193.00
2022-12-08T14:45:35.231Z,46239.81
2022-12-08T14:48:42.078Z,47069.13
2022-12-08T14:51:22.830Z,48236.47
2022-12-08T14:53:52.798Z,49390.22
2022-12-08T14:56:24.862Z,50340.31
2022-12-08T14:59:09.390Z,51096.56
2022-12-08T15:01:37.406Z,51542.81
2022-12-08T15:04:12.810Z,52125.19
2022-12-08T15:07:04.827Z,52737.72
2022-12-08T15:09:34.931Z,53826.91
2022-12-08T15:12:14.044Z,53570.59
2022-12-08T15:15:00.557Z,53314.31
2022-12-08T15:17:41.147Z,54852.38
2022-12-08T15:20:34.577Z,55878.13
2022-12-08T15:23:05.178Z,56391.13
2022-12-08T15:25:35.277Z,56647.66
2022-12-08T15:28:02.760Z,56134.63
2022-12-08T15:30:30.309Z,55878.13
2022-12-08T15:32:59.713Z,56391.13
2022-12-08T15:35:27.211Z,56647.66
2022-12-08T15:37:54.342Z,56647.66
2022-12-08T15:40:23.025Z,60497.91
2022-12-08T15:42:50.186Z,61525.38
2022-12-08T15:45:17.831Z,61782.28
2022-12-08T15:47:45.586Z,62039.22
2022-12-08T15:50:18.635Z,62553.16
2022-12-08T15:52:46.098Z,62039.22
2022-12-08T15:55:23.883Z,62039.22
2022-12-08T15:58:44.993Z,61782.28
2022-12-08T16:00:52.564Z,62039.22
2022-12-08T16:04:14.289Z,61782.28
2022-12-08T16:09:28.812Z,61782.28
2022-12-08T16:12:14.709Z,61782.28
2022-12-08T16:15:48.147Z,62039.22
2022-12-08T16:17:36.581Z,62296.19
2022-12-08T16:20:13.133Z,62553.16
2022-12-08T16:25:36.373Z,62810.16
2022-12-08T16:28:52.053Z,63067.16
2022-12-08T16:31:05.551Z,62810.16
2022-12-08T16:33:38.559Z,62810.16
2022-12-08T16:36:06.032Z,62810.16
2022-12-08T16:38:34.800Z,63067.16
2022-12-08T16:41:20.624Z,63324.19
2022-12-08T16:43:51.144Z,63324.19
2022-12-08T16:46:23.095Z,63324.19
2022-12-08T16:48:52.754Z,63838.31
2022-12-08T16:51:26.466Z,64095.41
2022-12-08T16:53:58.427Z,64352.53
2022-12-08T16:56:32.730Z,63838.31
2022-12-08T16:59:02.999Z,63581.25
2022-12-08T17:01:35.739Z,63067.16
2022-12-08T17:06:52.965Z,64095.41
2022-12-08T17:09:22.395Z,64609.66
2022-12-08T17:11:49.561Z,64352.53
2022-12-08T17:14:16.721Z,64352.53
2022-12-08T17:16:46.204Z,64095.41
2022-12-08T17:19:16.431Z,64095.41
2022-12-08T17:21:45.901Z,64095.41
2022-12-08T17:24:15.803Z,64352.53
2022-12-08T17:26:51.582Z,65381.16
2022-12-08T17:29:18.746Z,65381.16
2022-12-08T17:31:49.316Z,65381.16
2022-12-08T17:34:19.699Z,65123.97
2022-12-08T17:36:52.053Z,64609.66
2022-12-08T17:39:19.419Z,63838.31
2022-12-08T17:41:49.132Z,63581.25
2022-12-08T17:44:21.998Z,63324.19
2022-12-08T17:46:52.893Z,63067.16
2022-12-08T17:49:23.516Z,62810.16
2022-12-08T17:51:53.294Z,62810.16
2022-12-08T17:54:21.129Z,63067.16
2022-12-08T17:56:48.299Z,62810.16
2022-12-08T17:59:15.525Z,62553.16
2022-12-08T18:01:42.992Z,62039.22
2022-12-08T18:04:11.701Z,62296.19
2022-12-08T18:06:41.646Z,62296.19
2022-12-08T18:09:09.682Z,61782.28
2022-12-08T18:11:39.435Z,61525.38
2022-12-08T18:14:11.140Z,61782.28
2022-12-08T18:16:40.995Z,61782.28
2022-12-08T18:19:10.471Z,61525.38
2022-12-08T18:21:38.286Z,61268.47
2022-12-08T18:24:08.743Z,61268.47
2022-12-08T18:26:41.358Z,61011.59
2022-12-08T18:29:10.546Z,61011.59
2022-12-08T18:31:37.633Z,60754.75
2022-12-08T18:34:04.796Z,59984.28
2022-12-08T18:36:36.446Z,59727.50
2022-12-08T18:39:10.694Z,59727.50
2022-12-08T18:41:38.297Z,59470.75
2022-12-08T18:44:05.375Z,59470.75
2022-12-08T18:46:37.317Z,59727.50
2022-12-08T18:49:06.675Z,59214.00
2022-12-08T18:51:33.877Z,59214.00
2022-12-08T18:54:01.508Z,58957.28
2022-12-08T18:56:33.545Z,58700.59
2022-12-08T18:59:04.289Z,58700.59
2022-12-08T19:01:32.690Z,58957.28
2022-12-08T19:06:51.240Z,58957.28
2022-12-08T19:09:19.572Z,58700.59
2022-12-08T19:11:46.853Z,58700.59
2022-12-08T19:14:14.425Z,58700.59
2022-12-08T19:16:48.361Z,58443.91
2022-12-08T19:19:21.447Z,58187.25
2022-12-08T19:21:51.115Z,58443.91
2022-12-08T19:24:18.637Z,58187.25
2022-12-08T19:26:45.687Z,57930.59
2022-12-08T19:29:13.309Z,58443.91
2022-12-08T19:31:43.466Z,58700.59
2022-12-08T19:34:12.592Z,58700.59
2022-12-08T19:36:42.943Z,58443.91
2022-12-08T19:39:38.114Z,58187.25
2022-12-08T19:42:38.367Z,58187.25
2022-12-08T19:45:11.816Z,58187.25
2022-12-08T19:47:40.041Z,57673.97
2022-12-08T19:50:28.834Z,57417.38
2022-12-08T19:52:58.457Z,56904.22
2022-12-08T19:55:28.814Z,56134.63
2022-12-08T19:58:01.873Z,55365.22
2022-12-08T20:00:30.742Z,55108.78
2022-12-08T20:03:01.946Z,54595.97
2022-12-08T20:05:30.227Z,54339.59
2022-12-08T20:08:00.203Z,53826.91
2022-12-08T20:10:33.648Z,53292.28
2022-12-08T20:13:22.340Z,53570.59
2022-12-08T20:15:54.055Z,53314.31
2022-12-08T20:18:21.791Z,53260.25
2022-12-08T20:20:51.472Z,48652.31
2022-12-08T20:23:18.595Z,41270.38
2022-12-08T20:25:48.240Z,39981.78
2022-12-08T20:28:18.951Z,39963.84
2022-12-08T20:30:49.176Z,40197.19
2022-12-08T20:33:18.615Z,40526.28
2022-12-08T20:35:59.135Z,40875.34
2022-12-08T20:38:29.583Z,41270.38
2022-12-08T20:40:58.030Z,41743.25
2022-12-08T20:43:29.704Z,42096.44
2022-12-08T20:45:56.895Z,42567.44
2022-12-08T20:48:26.244Z,42942.66
2022-12-08T20:50:55.916Z,43218.16
2022-12-08T20:53:27.655Z,43469.69
2022-12-08T20:55:59.447Z,43585.47
2022-12-08T20:58:26.641Z,43815.06
2022-12-08T21:00:53.808Z,44052.69
2022-12-08T21:03:21.481Z,44460.03
2022-12-08T21:05:54.956Z,44691.69
2022-12-08T21:08:25.367Z,44959.31
2022-12-08T21:10:58.229Z,45330.84
2022-12-08T21:13:25.591Z,45794.28
2022-12-08T21:15:53.350Z,46181.88
2022-12-08T21:18:20.833Z,46653.44
2022-12-08T21:20:48.348Z,46847.28
2022-12-08T21:23:18.868Z,47342.94
2022-12-08T21:25:48.213Z,47604.75
2022-12-08T21:28:15.482Z,48212.47
2022-12-08T21:30:45.930Z,48590.34
2022-12-08T21:33:13.312Z,48872.28
2022-12-08T21:35:40.647Z,49000.25
2022-12-08T21:38:07.994Z,49416.22
2022-12-08T21:40:37.708Z,49786.22
2022-12-08T21:43:04.907Z,50320.28
2022-12-08T21:45:36.146Z,50418.31
2022-12-08T21:48:11.052Z,51242.63
2022-12-08T21:50:39.007Z,51788.94
2022-12-08T21:53:11.228Z,53038.00
2022-12-08T21:55:41.390Z,53486.50
2022-12-08T21:58:10.996Z,53570.59
2022-12-08T22:00:38.474Z,54083.25
2022-12-08T22:03:15.661Z,54595.97
2022-12-08T22:05:45.364Z,55108.78
2022-12-08T22:08:12.688Z,55108.78
2022-12-08T22:10:47.007Z,55878.13
2022-12-08T22:13:14.256Z,56647.66
2022-12-08T22:15:56.159Z,56647.66
2022-12-08T22:18:28.031Z,57417.38
2022-12-08T22:21:00.502Z,57930.59
2022-12-08T22:23:28.777Z,58187.25
2022-12-08T22:26:00.602Z,58187.25
2022-12-08T22:28:32.391Z,57673.97
2022-12-08T22:31:01.809Z,57673.97
2022-12-08T22:33:31.077Z,58700.59
2022-12-08T22:36:08.096Z,58957.28
2022-12-08T22:38:37.859Z,59470.75
2022-12-08T22:41:10.116Z,59727.50
2022-12-08T22:43:38.190Z,59727.50
2022-12-08T22:46:24.447Z,59727.50
2022-12-08T22:48:52.906Z,59984.28
2022-12-08T22:51:22.466Z,60497.91
2022-12-08T22:53:54.413Z,60497.91
2022-12-08T22:56:23.838Z,61268.47
2022-12-08T22:58:53.326Z,61782.28
2022-12-08T23:01:34.571Z,62039.22
2022-12-08T23:04:04.826Z,62296.19
2022-12-08T23:06:32.147Z,62296.19
2022-12-08T23:08:59.501Z,62296.19
2022-12-08T23:11:30.672Z,62039.22
2022-12-08T23:14:00.330Z,62296.19
2022-12-08T23:16:30.518Z,62810.16
2022-12-08T23:19:00.154Z,62810.16
2022-12-08T23:21:27.601Z,63067.16
2022-12-08T23:23:54.881Z,63067.16
2022-12-08T23:26:27.397Z,63581.25
2022-12-08T23:28:57.775Z,63838.31
2022-12-08T23:31:25.818Z,63838.31
2022-12-08T23:33:58.241Z,63581.25
2022-12-08T23:36:28.166Z,63324.19
2022-12-08T23:38:55.548Z,63581.25
2022-12-08T23:41:24.972Z,63581.25
2022-12-08T23:43:56.851Z,63838.31
2022-12-08T23:46:24.598Z,64095.41
2022-12-08T23:48:56.263Z,64352.53
2022-12-08T23:51:26.056Z,64352.53
2022-12-08T23:53:55.667Z,64352.53
2022-12-08T23:56:30.090Z,64352.53
2022-12-08T23:58:57.566Z,62296.19
